sensor_id;sensor_type;location;lat;lon;timestamp;P1;durP1;ratioP1;P2;durP2;ratioP2
74510;SDS011;62991;50.040;18.400;2023-02-21T00:01:51;6.10;;;2.30;;
74510;SDS011;62991;50.040;18.400;2023-02-21T00:05:10;4.28;;;1.50;;
74510;SDS011;62991;50.040;18.400;2023-02-21T00:08:29;4.97;;;1.83;;
74510;SDS011;62991;50.040;18.400;2023-02-21T00:11:49;5.28;;;1.98;;
74510;SDS011;62991;50.040;18.400;2023-02-21T00:15:09;3.42;;;1.10;;
74510;SDS011;62991;50.040;18.400;2023-02-21T00:18:32;3.83;;;1.75;;
74510;SDS011;62991;50.040;18.400;2023-02-21T00:21:54;1.45;;;1.13;;
74510;SDS011;62991;50.040;18.400;2023-02-21T00:25:14;2.55;;;1.13;;
74510;SDS011;62991;50.040;18.400;2023-02-21T00:28:33;3.63;;;1.58;;
74510;SDS011;62991;50.040;18.400;2023-02-21T00:31:53;4.18;;;1.58;;
74510;SDS011;62991;50.040;18.400;2023-02-21T00:35:12;0.90;;;0.45;;
74510;SDS011;62991;50.040;18.400;2023-02-21T00:38:31;2.38;;;0.80;;
74510;SDS011;62991;50.040;18.400;2023-02-21T00:41:51;1.63;;;0.75;;
74510;SDS011;62991;50.040;18.400;2023-02-21T00:45:10;1.60;;;0.95;;
74510;SDS011;62991;50.040;18.400;2023-02-21T00:48:29;1.58;;;0.60;;
74510;SDS011;62991;50.040;18.400;2023-02-21T00:51:49;1.05;;;0.75;;
74510;SDS011;62991;50.040;18.400;2023-02-21T00:55:08;3.60;;;1.02;;
74510;SDS011;62991;50.040;18.400;2023-02-21T00:58:28;1.98;;;1.00;;
74510;SDS011;62991;50.040;18.400;2023-02-21T01:01:47;1.52;;;0.65;;
74510;SDS011;62991;50.040;18.400;2023-02-21T01:05:07;2.20;;;1.13;;
74510;SDS011;62991;50.040;18.400;2023-02-21T01:08:26;1.75;;;1.05;;
74510;SDS011;62991;50.040;18.400;2023-02-21T01:11:45;2.08;;;0.93;;
74510;SDS011;62991;50.040;18.400;2023-02-21T01:15:05;0.88;;;0.80;;
74510;SDS011;62991;50.040;18.400;2023-02-21T01:18:24;0.45;;;0.38;;
74510;SDS011;62991;50.040;18.400;2023-02-21T01:21:44;0.95;;;0.75;;
74510;SDS011;62991;50.040;18.400;2023-02-21T01:25:04;1.10;;;0.80;;
74510;SDS011;62991;50.040;18.400;2023-02-21T01:28:24;3.85;;;1.30;;
74510;SDS011;62991;50.040;18.400;2023-02-21T01:31:43;2.65;;;1.38;;
74510;SDS011;62991;50.040;18.400;2023-02-21T01:35:03;3.72;;;1.75;;
74510;SDS011;62991;50.040;18.400;2023-02-21T01:38:22;2.15;;;0.88;;
74510;SDS011;62991;50.040;18.400;2023-02-21T01:41:42;3.67;;;1.00;;
74510;SDS011;62991;50.040;18.400;2023-02-21T01:48:38;1.58;;;0.90;;
74510;SDS011;62991;50.040;18.400;2023-02-21T01:51:58;3.33;;;1.40;;
74510;SDS011;62991;50.040;18.400;2023-02-21T01:55:20;2.17;;;1.25;;
74510;SDS011;62991;50.040;18.400;2023-02-21T01:58:40;2.15;;;0.93;;
74510;SDS011;62991;50.040;18.400;2023-02-21T02:02:05;2.13;;;0.75;;
74510;SDS011;62991;50.040;18.400;2023-02-21T02:05:39;4.70;;;1.25;;
74510;SDS011;62991;50.040;18.400;2023-02-21T02:09:16;1.30;;;0.70;;
74510;SDS011;62991;50.040;18.400;2023-02-21T02:35:19;4.53;;;1.10;;
74510;SDS011;62991;50.040;18.400;2023-02-21T02:38:37;5.13;;;1.67;;
74510;SDS011;62991;50.040;18.400;2023-02-21T02:42:01;9.00;;;2.63;;
74510;SDS011;62991;50.040;18.400;2023-02-21T02:48:36;1.48;;;1.25;;
74510;SDS011;62991;50.040;18.400;2023-02-21T02:51:49;1.63;;;1.05;;
74510;SDS011;62991;50.040;18.400;2023-02-21T02:54:58;1.52;;;0.85;;
74510;SDS011;62991;50.040;18.400;2023-02-21T02:58:04;2.28;;;1.20;;
74510;SDS011;62991;50.040;18.400;2023-02-21T03:07:49;4.72;;;1.50;;
74510;SDS011;62991;50.040;18.400;2023-02-21T03:10:57;2.03;;;0.75;;
74510;SDS011;62991;50.040;18.400;2023-02-21T03:14:12;2.95;;;1.77;;
74510;SDS011;62991;50.040;18.400;2023-02-21T03:17:15;4.20;;;0.77;;
74510;SDS011;62991;50.040;18.400;2023-02-21T03:20:19;3.83;;;0.73;;
74510;SDS011;62991;50.040;18.400;2023-02-21T03:23:21;3.03;;;1.13;;
74510;SDS011;62991;50.040;18.400;2023-02-21T03:26:25;3.38;;;1.25;;
74510;SDS011;62991;50.040;18.400;2023-02-21T03:29:27;2.35;;;1.13;;
74510;SDS011;62991;50.040;18.400;2023-02-21T03:32:33;3.30;;;0.88;;
74510;SDS011;62991;50.040;18.400;2023-02-21T03:35:34;0.85;;;0.50;;
74510;SDS011;62991;50.040;18.400;2023-02-21T03:38:35;0.55;;;0.40;;
74510;SDS011;62991;50.040;18.400;2023-02-21T03:41:36;5.82;;;1.60;;
74510;SDS011;62991;50.040;18.400;2023-02-21T03:44:37;1.83;;;1.13;;
74510;SDS011;62991;50.040;18.400;2023-02-21T03:47:37;1.10;;;0.55;;
74510;SDS011;62991;50.040;18.400;2023-02-21T03:50:38;3.92;;;0.88;;
74510;SDS011;62991;50.040;18.400;2023-02-21T03:53:39;2.75;;;1.45;;
74510;SDS011;62991;50.040;18.400;2023-02-21T03:56:39;0.55;;;0.30;;
74510;SDS011;62991;50.040;18.400;2023-02-21T03:59:40;3.83;;;1.75;;
74510;SDS011;62991;50.040;18.400;2023-02-21T04:02:41;2.75;;;1.38;;
74510;SDS011;62991;50.040;18.400;2023-02-21T04:05:42;2.85;;;1.02;;
74510;SDS011;62991;50.040;18.400;2023-02-21T04:08:43;1.33;;;0.65;;
74510;SDS011;62991;50.040;18.400;2023-02-21T04:11:44;0.77;;;0.45;;
74510;SDS011;62991;50.040;18.400;2023-02-21T04:14:46;2.08;;;1.08;;
74510;SDS011;62991;50.040;18.400;2023-02-21T04:17:46;2.72;;;0.70;;
74510;SDS011;62991;50.040;18.400;2023-02-21T04:20:47;2.15;;;1.13;;
74510;SDS011;62991;50.040;18.400;2023-02-21T04:23:48;1.60;;;1.00;;
74510;SDS011;62991;50.040;18.400;2023-02-21T04:26:49;0.40;;;0.40;;
74510;SDS011;62991;50.040;18.400;2023-02-21T04:29:49;1.30;;;0.93;;
74510;SDS011;62991;50.040;18.400;2023-02-21T04:32:50;2.97;;;0.82;;
74510;SDS011;62991;50.040;18.400;2023-02-21T04:35:51;6.15;;;2.22;;
74510;SDS011;62991;50.040;18.400;2023-02-21T04:38:52;2.95;;;1.38;;
74510;SDS011;62991;50.040;18.400;2023-02-21T04:41:52;1.90;;;0.85;;
74510;SDS011;62991;50.040;18.400;2023-02-21T04:44:53;0.95;;;0.43;;
74510;SDS011;62991;50.040;18.400;2023-02-21T04:47:54;3.15;;;1.58;;
74510;SDS011;62991;50.040;18.400;2023-02-21T04:50:54;2.58;;;0.73;;
74510;SDS011;62991;50.040;18.400;2023-02-21T04:53:55;2.15;;;0.80;;
74510;SDS011;62991;50.040;18.400;2023-02-21T04:56:56;1.40;;;0.88;;
74510;SDS011;62991;50.040;18.400;2023-02-21T04:59:57;3.58;;;1.35;;
74510;SDS011;62991;50.040;18.400;2023-02-21T05:02:59;3.55;;;1.58;;
74510;SDS011;62991;50.040;18.400;2023-02-21T05:06:00;4.30;;;1.10;;
74510;SDS011;62991;50.040;18.400;2023-02-21T05:09:00;7.45;;;2.60;;
74510;SDS011;62991;50.040;18.400;2023-02-21T05:12:02;4.30;;;1.70;;
74510;SDS011;62991;50.040;18.400;2023-02-21T05:15:11;6.93;;;1.77;;
74510;SDS011;62991;50.040;18.400;2023-02-21T05:18:13;6.10;;;1.60;;
74510;SDS011;62991;50.040;18.400;2023-02-21T05:21:21;3.88;;;1.90;;
74510;SDS011;62991;50.040;18.400;2023-02-21T05:24:22;2.50;;;1.20;;
74510;SDS011;62991;50.040;18.400;2023-02-21T05:27:24;2.35;;;1.27;;
74510;SDS011;62991;50.040;18.400;2023-02-21T05:30:24;0.28;;;0.28;;
74510;SDS011;62991;50.040;18.400;2023-02-21T05:33:25;2.90;;;1.45;;
74510;SDS011;62991;50.040;18.400;2023-02-21T05:36:26;9.52;;;2.75;;
74510;SDS011;62991;50.040;18.400;2023-02-21T05:39:27;11.25;;;4.28;;
74510;SDS011;62991;50.040;18.400;2023-02-21T05:42:27;8.43;;;2.47;;
74510;SDS011;62991;50.040;18.400;2023-02-21T05:45:28;7.25;;;2.35;;
74510;SDS011;62991;50.040;18.400;2023-02-21T05:48:28;4.28;;;2.17;;
74510;SDS011;62991;50.040;18.400;2023-02-21T05:51:33;5.57;;;1.80;;
74510;SDS011;62991;50.040;18.400;2023-02-21T05:54:38;7.72;;;2.65;;
74510;SDS011;62991;50.040;18.400;2023-02-21T05:57:39;3.35;;;1.25;;
74510;SDS011;62991;50.040;18.400;2023-02-21T06:00:39;13.23;;;3.40;;
74510;SDS011;62991;50.040;18.400;2023-02-21T06:03:40;9.82;;;3.85;;
74510;SDS011;62991;50.040;18.400;2023-02-21T06:06:41;11.80;;;3.50;;
74510;SDS011;62991;50.040;18.400;2023-02-21T06:09:42;13.23;;;5.00;;
74510;SDS011;62991;50.040;18.400;2023-02-21T06:12:42;10.13;;;4.45;;
74510;SDS011;62991;50.040;18.400;2023-02-21T06:15:43;9.52;;;3.22;;
74510;SDS011;62991;50.040;18.400;2023-02-21T06:18:44;6.18;;;1.95;;
74510;SDS011;62991;50.040;18.400;2023-02-21T06:21:44;11.98;;;3.15;;
74510;SDS011;62991;50.040;18.400;2023-02-21T06:24:45;8.80;;;4.00;;
74510;SDS011;62991;50.040;18.400;2023-02-21T06:27:46;12.68;;;4.78;;
74510;SDS011;62991;50.040;18.400;2023-02-21T06:30:47;13.07;;;3.58;;
74510;SDS011;62991;50.040;18.400;2023-02-21T06:33:47;4.53;;;2.42;;
74510;SDS011;62991;50.040;18.400;2023-02-21T06:36:51;4.07;;;2.05;;
74510;SDS011;62991;50.040;18.400;2023-02-21T06:39:53;13.07;;;5.72;;
74510;SDS011;62991;50.040;18.400;2023-02-21T06:42:54;7.40;;;3.67;;
74510;SDS011;62991;50.040;18.400;2023-02-21T06:45:54;10.90;;;3.97;;
74510;SDS011;62991;50.040;18.400;2023-02-21T06:48:55;17.75;;;4.72;;
74510;SDS011;62991;50.040;18.400;2023-02-21T06:51:56;9.88;;;3.85;;
74510;SDS011;62991;50.040;18.400;2023-02-21T06:54:57;28.20;;;9.98;;
74510;SDS011;62991;50.040;18.400;2023-02-21T06:57:58;22.38;;;6.88;;
74510;SDS011;62991;50.040;18.400;2023-02-21T07:00:58;14.50;;;5.25;;
74510;SDS011;62991;50.040;18.400;2023-02-21T07:03:59;10.07;;;3.92;;
74510;SDS011;62991;50.040;18.400;2023-02-21T07:07:00;14.65;;;4.30;;
74510;SDS011;62991;50.040;18.400;2023-02-21T07:10:00;12.52;;;5.22;;
74510;SDS011;62991;50.040;18.400;2023-02-21T07:13:01;5.63;;;2.72;;
74510;SDS011;62991;50.040;18.400;2023-02-21T07:16:02;8.88;;;3.63;;
74510;SDS011;62991;50.040;18.400;2023-02-21T07:19:04;6.32;;;2.63;;
74510;SDS011;62991;50.040;18.400;2023-02-21T07:22:04;3.22;;;1.30;;
74510;SDS011;62991;50.040;18.400;2023-02-21T07:25:05;8.23;;;1.17;;
74510;SDS011;62991;50.040;18.400;2023-02-21T07:28:06;7.32;;;2.92;;
74510;SDS011;62991;50.040;18.400;2023-02-21T07:31:07;12.77;;;3.90;;
74510;SDS011;62991;50.040;18.400;2023-02-21T07:34:09;13.60;;;5.43;;
74510;SDS011;62991;50.040;18.400;2023-02-21T07:37:11;7.43;;;3.08;;
74510;SDS011;62991;50.040;18.400;2023-02-21T07:40:12;4.45;;;1.98;;
74510;SDS011;62991;50.040;18.400;2023-02-21T07:43:12;4.90;;;2.53;;
74510;SDS011;62991;50.040;18.400;2023-02-21T07:46:14;9.32;;;3.20;;
74510;SDS011;62991;50.040;18.400;2023-02-21T07:49:16;7.50;;;3.20;;
74510;SDS011;62991;50.040;18.400;2023-02-21T07:52:17;7.60;;;2.70;;
74510;SDS011;62991;50.040;18.400;2023-02-21T07:55:18;6.80;;;2.25;;
74510;SDS011;62991;50.040;18.400;2023-02-21T07:58:18;8.35;;;3.33;;
74510;SDS011;62991;50.040;18.400;2023-02-21T08:01:21;4.25;;;1.85;;
74510;SDS011;62991;50.040;18.400;2023-02-21T08:04:23;7.05;;;2.28;;
74510;SDS011;62991;50.040;18.400;2023-02-21T08:07:24;11.82;;;4.57;;
74510;SDS011;62991;50.040;18.400;2023-02-21T08:10:25;6.75;;;3.15;;
74510;SDS011;62991;50.040;18.400;2023-02-21T08:13:26;8.77;;;4.28;;
74510;SDS011;62991;50.040;18.400;2023-02-21T08:16:27;10.52;;;3.88;;
74510;SDS011;62991;50.040;18.400;2023-02-21T08:19:28;3.58;;;1.92;;
74510;SDS011;62991;50.040;18.400;2023-02-21T08:22:28;10.30;;;4.53;;
74510;SDS011;62991;50.040;18.400;2023-02-21T08:25:29;16.88;;;6.63;;
74510;SDS011;62991;50.040;18.400;2023-02-21T08:28:30;12.48;;;4.85;;
74510;SDS011;62991;50.040;18.400;2023-02-21T08:31:34;16.95;;;4.75;;
74510;SDS011;62991;50.040;18.400;2023-02-21T08:34:36;6.50;;;2.85;;
74510;SDS011;62991;50.040;18.400;2023-02-21T08:37:36;5.25;;;2.88;;
74510;SDS011;62991;50.040;18.400;2023-02-21T08:40:44;8.75;;;2.63;;
74510;SDS011;62991;50.040;18.400;2023-02-21T08:43:45;4.18;;;2.58;;
74510;SDS011;62991;50.040;18.400;2023-02-21T08:46:46;5.20;;;2.33;;
74510;SDS011;62991;50.040;18.400;2023-02-21T08:49:47;4.50;;;1.67;;
74510;SDS011;62991;50.040;18.400;2023-02-21T08:52:48;6.20;;;2.95;;
74510;SDS011;62991;50.040;18.400;2023-02-21T08:55:49;8.50;;;3.03;;
74510;SDS011;62991;50.040;18.400;2023-02-21T08:58:50;5.07;;;2.08;;
74510;SDS011;62991;50.040;18.400;2023-02-21T09:01:53;2.20;;;1.25;;
74510;SDS011;62991;50.040;18.400;2023-02-21T09:04:54;2.08;;;1.05;;
74510;SDS011;62991;50.040;18.400;2023-02-21T09:07:55;2.17;;;1.17;;
74510;SDS011;62991;50.040;18.400;2023-02-21T09:11:01;2.97;;;1.23;;
74510;SDS011;62991;50.040;18.400;2023-02-21T09:14:01;3.88;;;2.00;;
74510;SDS011;62991;50.040;18.400;2023-02-21T09:17:05;4.45;;;1.33;;
74510;SDS011;62991;50.040;18.400;2023-02-21T09:20:12;1.60;;;1.17;;
74510;SDS011;62991;50.040;18.400;2023-02-21T09:23:15;5.05;;;2.20;;
74510;SDS011;62991;50.040;18.400;2023-02-21T09:26:17;2.10;;;0.98;;
74510;SDS011;62991;50.040;18.400;2023-02-21T09:29:19;4.47;;;2.10;;
74510;SDS011;62991;50.040;18.400;2023-02-21T09:32:20;5.00;;;2.08;;
74510;SDS011;62991;50.040;18.400;2023-02-21T09:35:21;5.70;;;2.40;;
74510;SDS011;62991;50.040;18.400;2023-02-21T09:38:22;1.50;;;1.08;;
74510;SDS011;62991;50.040;18.400;2023-02-21T09:41:22;6.22;;;1.38;;
74510;SDS011;62991;50.040;18.400;2023-02-21T09:44:24;3.33;;;1.45;;
74510;SDS011;62991;50.040;18.400;2023-02-21T09:47:28;2.00;;;0.93;;
74510;SDS011;62991;50.040;18.400;2023-02-21T09:50:34;8.80;;;2.67;;
74510;SDS011;62991;50.040;18.400;2023-02-21T09:53:42;5.05;;;3.10;;
74510;SDS011;62991;50.040;18.400;2023-02-21T09:56:46;10.48;;;3.80;;
74510;SDS011;62991;50.040;18.400;2023-02-21T09:59:47;6.53;;;2.50;;
74510;SDS011;62991;50.040;18.400;2023-02-21T10:02:54;11.05;;;3.70;;
74510;SDS011;62991;50.040;18.400;2023-02-21T10:12:58;1.63;;;0.95;;
74510;SDS011;62991;50.040;18.400;2023-02-21T10:19:31;2.85;;;1.38;;
74510;SDS011;62991;50.040;18.400;2023-02-21T10:22:39;2.35;;;1.00;;
74510;SDS011;62991;50.040;18.400;2023-02-21T10:25:45;2.13;;;0.77;;
74510;SDS011;62991;50.040;18.400;2023-02-21T10:28:46;6.45;;;1.95;;
74510;SDS011;62991;50.040;18.400;2023-02-21T10:31:47;4.53;;;1.73;;
74510;SDS011;62991;50.040;18.400;2023-02-21T10:37:58;1.20;;;0.70;;
74510;SDS011;62991;50.040;18.400;2023-02-21T10:41:01;1.00;;;0.38;;
74510;SDS011;62991;50.040;18.400;2023-02-21T10:44:08;2.35;;;1.17;;
74510;SDS011;62991;50.040;18.400;2023-02-21T10:47:15;5.05;;;1.33;;
74510;SDS011;62991;50.040;18.400;2023-02-21T10:50:49;0.55;;;0.50;;
74510;SDS011;62991;50.040;18.400;2023-02-21T10:53:53;1.52;;;0.75;;
74510;SDS011;62991;50.040;18.400;2023-02-21T10:57:13;1.50;;;0.73;;
74510;SDS011;62991;50.040;18.400;2023-02-21T11:00:27;0.82;;;0.40;;
74510;SDS011;62991;50.040;18.400;2023-02-21T11:03:30;0.55;;;0.38;;
74510;SDS011;62991;50.040;18.400;2023-02-21T11:06:32;5.93;;;2.63;;
74510;SDS011;62991;50.040;18.400;2023-02-21T11:09:41;0.77;;;0.55;;
74510;SDS011;62991;50.040;18.400;2023-02-21T11:12:43;1.92;;;1.10;;
74510;SDS011;62991;50.040;18.400;2023-02-21T11:15:44;1.95;;;0.73;;
74510;SDS011;62991;50.040;18.400;2023-02-21T11:18:45;4.30;;;1.38;;
74510;SDS011;62991;50.040;18.400;2023-02-21T11:21:46;1.15;;;0.63;;
74510;SDS011;62991;50.040;18.400;2023-02-21T11:24:59;2.22;;;0.93;;
74510;SDS011;62991;50.040;18.400;2023-02-21T11:28:24;2.65;;;0.50;;
74510;SDS011;62991;50.040;18.400;2023-02-21T11:34:28;3.88;;;1.38;;
74510;SDS011;62991;50.040;18.400;2023-02-21T11:37:29;3.60;;;1.02;;
74510;SDS011;62991;50.040;18.400;2023-02-21T11:40:41;3.88;;;1.20;;
74510;SDS011;62991;50.040;18.400;2023-02-21T11:43:52;1.75;;;0.80;;
74510;SDS011;62991;50.040;18.400;2023-02-21T11:46:57;3.28;;;1.40;;
74510;SDS011;62991;50.040;18.400;2023-02-21T11:50:26;2.60;;;0.70;;
74510;SDS011;62991;50.040;18.400;2023-02-21T11:56:53;4.68;;;1.48;;
74510;SDS011;62991;50.040;18.400;2023-02-21T12:07:15;2.17;;;0.82;;
74510;SDS011;62991;50.040;18.400;2023-02-21T12:41:19;7.15;;;1.70;;
74510;SDS011;62991;50.040;18.400;2023-02-21T12:51:07;5.50;;;1.83;;
74510;SDS011;62991;50.040;18.400;2023-02-21T12:54:21;4.00;;;1.85;;
74510;SDS011;62991;50.040;18.400;2023-02-21T12:57:46;6.93;;;2.47;;
74510;SDS011;62991;50.040;18.400;2023-02-21T13:01:11;4.38;;;1.75;;
74510;SDS011;62991;50.040;18.400;2023-02-21T13:04:21;2.15;;;0.85;;
74510;SDS011;62991;50.040;18.400;2023-02-21T13:08:10;4.80;;;1.80;;
74510;SDS011;62991;50.040;18.400;2023-02-21T13:14:12;4.50;;;1.70;;
74510;SDS011;62991;50.040;18.400;2023-02-21T13:17:16;2.72;;;1.17;;
74510;SDS011;62991;50.040;18.400;2023-02-21T13:20:19;4.10;;;1.58;;
74510;SDS011;62991;50.040;18.400;2023-02-21T13:27:33;3.47;;;1.50;;
74510;SDS011;62991;50.040;18.400;2023-02-21T13:30:40;3.13;;;1.50;;
74510;SDS011;62991;50.040;18.400;2023-02-21T13:33:49;7.47;;;1.88;;
74510;SDS011;62991;50.040;18.400;2023-02-21T13:37:00;5.43;;;2.58;;
74510;SDS011;62991;50.040;18.400;2023-02-21T13:40:05;4.13;;;2.08;;
74510;SDS011;62991;50.040;18.400;2023-02-21T13:43:28;5.82;;;2.35;;
74510;SDS011;62991;50.040;18.400;2023-02-21T13:49:40;4.80;;;1.70;;
74510;SDS011;62991;50.040;18.400;2023-02-21T13:52:51;4.07;;;1.92;;
74510;SDS011;62991;50.040;18.400;2023-02-21T14:02:27;5.85;;;2.25;;
74510;SDS011;62991;50.040;18.400;2023-02-21T14:08:49;9.60;;;2.88;;
74510;SDS011;62991;50.040;18.400;2023-02-21T14:11:57;5.07;;;1.70;;
74510;SDS011;62991;50.040;18.400;2023-02-21T14:15:05;5.40;;;2.15;;
74510;SDS011;62991;50.040;18.400;2023-02-21T14:21:31;6.00;;;1.80;;
74510;SDS011;62991;50.040;18.400;2023-02-21T14:24:47;6.53;;;2.85;;
74510;SDS011;62991;50.040;18.400;2023-02-21T14:27:50;5.45;;;2.08;;
74510;SDS011;62991;50.040;18.400;2023-02-21T14:31:00;4.72;;;2.35;;
74510;SDS011;62991;50.040;18.400;2023-02-21T14:34:02;3.90;;;1.80;;
74510;SDS011;62991;50.040;18.400;2023-02-21T14:37:05;4.57;;;1.92;;
74510;SDS011;62991;50.040;18.400;2023-02-21T14:47:03;3.30;;;1.65;;
74510;SDS011;62991;50.040;18.400;2023-02-21T14:57:41;2.00;;;1.17;;
74510;SDS011;62991;50.040;18.400;2023-02-21T15:00:57;1.98;;;1.10;;
74510;SDS011;62991;50.040;18.400;2023-02-21T15:04:11;4.75;;;1.70;;
74510;SDS011;62991;50.040;18.400;2023-02-21T15:07:33;2.65;;;1.38;;
74510;SDS011;62991;50.040;18.400;2023-02-21T15:11:01;5.10;;;2.00;;
74510;SDS011;62991;50.040;18.400;2023-02-21T15:14:18;5.47;;;1.98;;
74510;SDS011;62991;50.040;18.400;2023-02-21T15:17:23;4.85;;;2.20;;
74510;SDS011;62991;50.040;18.400;2023-02-21T15:20:25;6.80;;;2.55;;
74510;SDS011;62991;50.040;18.400;2023-02-21T15:23:25;3.42;;;1.52;;
74510;SDS011;62991;50.040;18.400;2023-02-21T15:26:31;3.22;;;1.38;;
74510;SDS011;62991;50.040;18.400;2023-02-21T15:29:33;6.88;;;1.83;;
74510;SDS011;62991;50.040;18.400;2023-02-21T15:32:34;3.00;;;1.48;;
74510;SDS011;62991;50.040;18.400;2023-02-21T15:35:36;2.00;;;1.00;;
74510;SDS011;62991;50.040;18.400;2023-02-21T15:41:46;10.13;;;3.95;;
74510;SDS011;62991;50.040;18.400;2023-02-21T15:48:04;10.20;;;3.70;;
74510;SDS011;62991;50.040;18.400;2023-02-21T15:51:06;6.18;;;3.03;;
74510;SDS011;62991;50.040;18.400;2023-02-21T15:54:31;7.72;;;2.40;;
74510;SDS011;62991;50.040;18.400;2023-02-21T15:57:35;16.85;;;5.35;;
74510;SDS011;62991;50.040;18.400;2023-02-21T16:00:37;25.80;;;5.68;;
74510;SDS011;62991;50.040;18.400;2023-02-21T16:03:40;12.00;;;3.50;;
74510;SDS011;62991;50.040;18.400;2023-02-21T16:06:55;7.53;;;3.13;;
74510;SDS011;62991;50.040;18.400;2023-02-21T16:10:01;5.03;;;2.42;;
74510;SDS011;62991;50.040;18.400;2023-02-21T16:13:05;8.32;;;3.30;;
74510;SDS011;62991;50.040;18.400;2023-02-21T16:16:06;14.60;;;4.88;;
74510;SDS011;62991;50.040;18.400;2023-02-21T16:19:08;16.10;;;6.53;;
74510;SDS011;62991;50.040;18.400;2023-02-21T16:25:25;10.23;;;3.88;;
74510;SDS011;62991;50.040;18.400;2023-02-21T16:28:26;14.82;;;5.28;;
74510;SDS011;62991;50.040;18.400;2023-02-21T16:31:29;17.15;;;6.40;;
74510;SDS011;62991;50.040;18.400;2023-02-21T16:34:32;16.98;;;6.63;;
74510;SDS011;62991;50.040;18.400;2023-02-21T16:37:33;16.67;;;6.03;;
74510;SDS011;62991;50.040;18.400;2023-02-21T16:40:34;10.98;;;4.32;;
74510;SDS011;62991;50.040;18.400;2023-02-21T16:43:35;10.93;;;4.93;;
74510;SDS011;62991;50.040;18.400;2023-02-21T16:46:36;12.57;;;3.85;;
74510;SDS011;62991;50.040;18.400;2023-02-21T16:49:36;8.00;;;3.45;;
74510;SDS011;62991;50.040;18.400;2023-02-21T16:52:37;13.18;;;5.13;;
74510;SDS011;62991;50.040;18.400;2023-02-21T16:55:38;17.55;;;5.68;;
74510;SDS011;62991;50.040;18.400;2023-02-21T16:58:41;19.50;;;4.88;;
74510;SDS011;62991;50.040;18.400;2023-02-21T17:01:43;13.45;;;4.45;;
74510;SDS011;62991;50.040;18.400;2023-02-21T17:04:44;15.50;;;5.63;;
74510;SDS011;62991;50.040;18.400;2023-02-21T17:07:44;10.20;;;3.67;;
74510;SDS011;62991;50.040;18.400;2023-02-21T17:10:46;8.85;;;3.55;;
74510;SDS011;62991;50.040;18.400;2023-02-21T17:13:46;10.00;;;3.95;;
74510;SDS011;62991;50.040;18.400;2023-02-21T17:16:47;4.28;;;2.22;;
74510;SDS011;62991;50.040;18.400;2023-02-21T17:19:48;9.48;;;4.05;;
74510;SDS011;62991;50.040;18.400;2023-02-21T17:22:49;9.63;;;3.55;;
74510;SDS011;62991;50.040;18.400;2023-02-21T17:25:50;1.98;;;0.88;;
74510;SDS011;62991;50.040;18.400;2023-02-21T17:28:51;6.78;;;2.63;;
74510;SDS011;62991;50.040;18.400;2023-02-21T17:31:52;5.50;;;2.92;;
74510;SDS011;62991;50.040;18.400;2023-02-21T17:34:54;8.65;;;3.80;;
74510;SDS011;62991;50.040;18.400;2023-02-21T17:37:56;13.90;;;4.47;;
74510;SDS011;62991;50.040;18.400;2023-02-21T17:41:00;13.73;;;3.50;;
74510;SDS011;62991;50.040;18.400;2023-02-21T17:44:01;3.85;;;2.08;;
74510;SDS011;62991;50.040;18.400;2023-02-21T17:47:02;9.02;;;2.88;;
74510;SDS011;62991;50.040;18.400;2023-02-21T17:50:06;13.32;;;3.75;;
74510;SDS011;62991;50.040;18.400;2023-02-21T17:53:07;4.88;;;1.90;;
74510;SDS011;62991;50.040;18.400;2023-02-21T17:56:08;7.05;;;2.75;;
74510;SDS011;62991;50.040;18.400;2023-02-21T17:59:08;10.68;;;3.58;;
74510;SDS011;62991;50.040;18.400;2023-02-21T18:02:10;6.22;;;3.08;;
74510;SDS011;62991;50.040;18.400;2023-02-21T18:05:12;8.35;;;3.13;;
74510;SDS011;62991;50.040;18.400;2023-02-21T18:08:14;14.90;;;4.07;;
74510;SDS011;62991;50.040;18.400;2023-02-21T18:11:16;8.45;;;3.97;;
74510;SDS011;62991;50.040;18.400;2023-02-21T18:14:17;9.18;;;3.67;;
74510;SDS011;62991;50.040;18.400;2023-02-21T18:17:19;5.63;;;2.22;;
74510;SDS011;62991;50.040;18.400;2023-02-21T18:20:20;11.50;;;3.25;;
74510;SDS011;62991;50.040;18.400;2023-02-21T18:23:21;10.07;;;2.72;;
74510;SDS011;62991;50.040;18.400;2023-02-21T18:26:22;16.95;;;6.47;;
74510;SDS011;62991;50.040;18.400;2023-02-21T18:29:22;10.43;;;4.45;;
74510;SDS011;62991;50.040;18.400;2023-02-21T18:32:23;7.53;;;4.00;;
74510;SDS011;62991;50.040;18.400;2023-02-21T18:35:25;9.80;;;4.43;;
74510;SDS011;62991;50.040;18.400;2023-02-21T18:38:26;24.95;;;7.93;;
74510;SDS011;62991;50.040;18.400;2023-02-21T18:41:27;22.67;;;8.05;;
74510;SDS011;62991;50.040;18.400;2023-02-21T18:44:27;35.30;;;9.20;;
74510;SDS011;62991;50.040;18.400;2023-02-21T18:47:30;16.38;;;6.20;;
74510;SDS011;62991;50.040;18.400;2023-02-21T18:50:33;21.25;;;6.75;;
74510;SDS011;62991;50.040;18.400;2023-02-21T18:53:35;18.35;;;6.28;;
74510;SDS011;62991;50.040;18.400;2023-02-21T18:56:36;14.95;;;6.18;;
74510;SDS011;62991;50.040;18.400;2023-02-21T18:59:37;7.68;;;3.83;;
74510;SDS011;62991;50.040;18.400;2023-02-21T19:02:37;21.30;;;7.63;;
74510;SDS011;62991;50.040;18.400;2023-02-21T19:05:38;15.15;;;6.38;;
74510;SDS011;62991;50.040;18.400;2023-02-21T19:08:39;13.00;;;4.85;;
74510;SDS011;62991;50.040;18.400;2023-02-21T19:11:40;17.98;;;5.25;;
74510;SDS011;62991;50.040;18.400;2023-02-21T19:14:40;13.00;;;3.58;;
74510;SDS011;62991;50.040;18.400;2023-02-21T19:17:41;9.40;;;3.88;;
74510;SDS011;62991;50.040;18.400;2023-02-21T19:20:42;14.15;;;5.32;;
74510;SDS011;62991;50.040;18.400;2023-02-21T19:23:43;10.73;;;4.32;;
74510;SDS011;62991;50.040;18.400;2023-02-21T19:26:44;11.25;;;4.03;;
74510;SDS011;62991;50.040;18.400;2023-02-21T19:29:44;9.27;;;4.13;;
74510;SDS011;62991;50.040;18.400;2023-02-21T19:32:46;13.23;;;4.60;;
74510;SDS011;62991;50.040;18.400;2023-02-21T19:35:47;10.63;;;3.35;;
74510;SDS011;62991;50.040;18.400;2023-02-21T19:38:47;11.05;;;3.67;;
74510;SDS011;62991;50.040;18.400;2023-02-21T19:41:48;7.78;;;3.70;;
74510;SDS011;62991;50.040;18.400;2023-02-21T19:44:49;8.13;;;3.22;;
74510;SDS011;62991;50.040;18.400;2023-02-21T19:47:49;9.43;;;2.60;;
74510;SDS011;62991;50.040;18.400;2023-02-21T19:50:50;6.03;;;2.30;;
74510;SDS011;62991;50.040;18.400;2023-02-21T19:53:51;8.25;;;2.90;;
74510;SDS011;62991;50.040;18.400;2023-02-21T19:56:52;6.57;;;2.63;;
74510;SDS011;62991;50.040;18.400;2023-02-21T19:59:52;10.20;;;3.03;;
74510;SDS011;62991;50.040;18.400;2023-02-21T20:02:53;10.40;;;3.08;;
74510;SDS011;62991;50.040;18.400;2023-02-21T20:05:54;11.35;;;3.70;;
74510;SDS011;62991;50.040;18.400;2023-02-21T20:08:55;19.98;;;7.38;;
74510;SDS011;62991;50.040;18.400;2023-02-21T20:11:56;8.68;;;4.25;;
74510;SDS011;62991;50.040;18.400;2023-02-21T20:14:57;15.35;;;5.38;;
74510;SDS011;62991;50.040;18.400;2023-02-21T20:17:58;17.40;;;5.82;;
74510;SDS011;62991;50.040;18.400;2023-02-21T20:20:58;19.52;;;7.57;;
74510;SDS011;62991;50.040;18.400;2023-02-21T20:23:59;16.17;;;6.20;;
74510;SDS011;62991;50.040;18.400;2023-02-21T20:27:00;12.43;;;5.38;;
74510;SDS011;62991;50.040;18.400;2023-02-21T20:30:02;13.50;;;4.70;;
74510;SDS011;62991;50.040;18.400;2023-02-21T20:33:04;9.73;;;4.00;;
74510;SDS011;62991;50.040;18.400;2023-02-21T20:36:06;7.05;;;2.85;;
74510;SDS011;62991;50.040;18.400;2023-02-21T20:39:14;9.48;;;3.13;;
74510;SDS011;62991;50.040;18.400;2023-02-21T20:42:17;8.80;;;3.72;;
74510;SDS011;62991;50.040;18.400;2023-02-21T20:45:21;12.15;;;3.92;;